Terminal Aerodrome Forecast
Issued by NWS

Home | Current Version | Previous Version | Text Only | Print | Product List | Glossary On
Versions: 1 2 3 4 5 6 7 8 9 10 11 12 13 14 15 16 17
000
FTUS43 KLSX 230500
TAFUIN
TAF
KUIN 230520Z 2306/2406 VRB04KT P6SM SCT100 BKN250
      TEMPO 2309/2313 5SM BR
     FM231600 13007KT P6SM SCT100 BKN250=

USA.gov is the U.S. government's official web portal to all federal, state and local government web resources and services.